CFE8465 EGLC-LEIB
Flight info
| Callsign | CFE8465 |
|---|---|
| Flight time | N/A |
| Altitude | 28000 |
| Route | SOQQA M87 EKNIV M91 LYD UM189 WAFFU DCT SITET/N0409F290 UN859 SOPIL DCT BALAN DCT EVPOK/N0407F310 DCT NARAK DCT GAI DCT LOMRA DCT ROCAN DCT PUMAL N859 BCN Z174 CORDA |
| Aircraft | RJ1H/M-SDFGIRWY/LB1 |
Departure
| Time | 2026-05-07 18:59 |
|---|---|
| Airport | London City Airport (EGLC) |
Arrival
| Time | N/A |
|---|---|
| Airport | Ibiza Airport (LEIB) |
| Time | Latitude | Longitude | Altitude | Speed | Heading |
|---|---|---|---|---|---|
| 2026-05-07 18:43 | 51.50407 | 0.05135 | 25 ft | 0 kts | 330° |
| 2026-05-07 18:55 | 51.50409 | 0.05133 | 25 ft | 2 kts | 330° |
| 2026-05-07 18:55 | 51.50422 | 0.05125 | 27 ft | 0 kts | 344° |
| 2026-05-07 18:56 | 51.50438 | 0.05118 | 25 ft | 4 kts | 336° |
| 2026-05-07 18:56 | 51.50457 | 0.05052 | 25 ft | 10 kts | 286° |
| 2026-05-07 18:56 | 51.50465 | 0.04904 | 25 ft | 14 kts | 274° |
| 2026-05-07 18:56 | 51.50467 | 0.04766 | 25 ft | 11 kts | 269° |
| 2026-05-07 18:57 | 51.50468 | 0.04652 | 25 ft | 10 kts | 273° |
| 2026-05-07 18:57 | 51.50477 | 0.04525 | 27 ft | 13 kts | 277° |
| 2026-05-07 18:57 | 51.50494 | 0.04455 | 27 ft | 9 kts | 323° |
| 2026-05-07 18:57 | 51.50555 | 0.04451 | 25 ft | 4 kts | 34° |
| 2026-05-07 18:58 | 51.50559 | 0.04473 | 29 ft | 0 kts | 97° |
| 2026-05-07 18:58 | 51.50549 | 0.04717 | 25 ft | 54 kts | 93° |
| 2026-05-07 18:58 | 51.50522 | 0.05627 | 25 ft | 107 kts | 93° |
| 2026-05-07 18:58 | 51.50482 | 0.06966 | 238 ft | 125 kts | 92° |
| 2026-05-07 18:59 | 51.50575 | 0.08377 | 634 ft | 133 kts | 63° |
| 2026-05-07 18:59 | 51.51153 | 0.09585 | 1092 ft | 137 kts | 51° |
| 2026-05-07 18:59 | 51.51826 | 0.10784 | 1377 ft | 157 kts | 49° |
| 2026-05-07 18:59 | 51.52666 | 0.12156 | 1563 ft | 184 kts | 47° |
| 2026-05-07 19:00 | 51.53616 | 0.13620 | 1960 ft | 198 kts | 45° |
| 2026-05-07 19:00 | 51.54655 | 0.15176 | 2365 ft | 208 kts | 44° |
| 2026-05-07 19:00 | 51.55457 | 0.17082 | 2864 ft | 210 kts | 75° |
| 2026-05-07 19:00 | 51.55833 | 0.19354 | 3240 ft | 214 kts | 80° |
| 2026-05-07 19:01 | 51.56160 | 0.21832 | 3261 ft | 235 kts | 81° |
| 2026-05-07 19:01 | 51.56524 | 0.24495 | 3382 ft | 253 kts | 72° |
| 2026-05-07 19:01 | 51.57190 | 0.27174 | 3962 ft | 259 kts | 67° |
| 2026-05-07 19:01 | 51.57941 | 0.29870 | 4234 ft | 267 kts | 65° |
| 2026-05-07 19:02 | 51.58725 | 0.32582 | 4685 ft | 267 kts | 65° |
| 2026-05-07 19:02 | 51.59527 | 0.35286 | 5120 ft | 269 kts | 64° |
| 2026-05-07 19:02 | 51.60079 | 0.37123 | 5408 ft | 271 kts | 64° |
| 2026-05-07 19:02 | 51.60721 | 0.39916 | 5919 ft | 272 kts | 84° |
| 2026-05-07 19:03 | 51.60559 | 0.42930 | 6378 ft | 272 kts | 101° |
| 2026-05-07 19:03 | 51.60228 | 0.45956 | 6771 ft | 277 kts | 100° |
| 2026-05-07 19:03 | 51.59892 | 0.49079 | 6933 ft | 285 kts | 100° |
| 2026-05-07 19:03 | 51.59535 | 0.52150 | 6982 ft | 276 kts | 102° |
| 2026-05-07 19:04 | 51.59148 | 0.55175 | 6998 ft | 275 kts | 108° |
| 2026-05-07 19:04 | 51.58168 | 0.57761 | 7014 ft | 273 kts | 141° |
| 2026-05-07 19:04 | 51.56482 | 0.59062 | 7035 ft | 271 kts | 168° |
| 2026-05-07 19:04 | 51.54620 | 0.59569 | 7032 ft | 272 kts | 172° |
| 2026-05-07 19:05 | 51.52748 | 0.59996 | 7023 ft | 272 kts | 173° |
| 2026-05-07 19:05 | 51.50865 | 0.60381 | 7126 ft | 276 kts | 173° |
| 2026-05-07 19:05 | 51.48999 | 0.60739 | 7926 ft | 272 kts | 173° |
| 2026-05-07 19:05 | 51.47112 | 0.61126 | 8667 ft | 274 kts | 174° |
| 2026-05-07 19:06 | 51.45219 | 0.61541 | 9469 ft | 276 kts | 173° |
| 2026-05-07 19:06 | 51.41323 | 0.62450 | 10028 ft | 283 kts | 172° |
| 2026-05-07 19:06 | 51.39427 | 0.63134 | 10056 ft | 278 kts | 165° |
| 2026-05-07 19:07 | 51.37576 | 0.64064 | 10067 ft | 279 kts | 163° |
| 2026-05-07 19:07 | 51.35735 | 0.65063 | 10069 ft | 280 kts | 163° |
| 2026-05-07 19:07 | 51.33897 | 0.66080 | 10068 ft | 278 kts | 163° |
| 2026-05-07 19:07 | 51.32046 | 0.67085 | 9933 ft | 290 kts | 163° |
| 2026-05-07 19:08 | 51.30056 | 0.68151 | 9948 ft | 313 kts | 163° |
| 2026-05-07 19:08 | 51.27969 | 0.69268 | 9969 ft | 320 kts | 163° |
| 2026-05-07 19:08 | 51.25883 | 0.70379 | 10570 ft | 319 kts | 163° |
| 2026-05-07 19:08 | 51.23776 | 0.71545 | 11110 ft | 322 kts | 160° |
| 2026-05-07 19:09 | 51.21693 | 0.72921 | 11592 ft | 326 kts | 158° |
| 2026-05-07 19:09 | 51.19625 | 0.74367 | 11818 ft | 326 kts | 158° |
| 2026-05-07 19:09 | 51.17512 | 0.75866 | 11915 ft | 339 kts | 157° |
| 2026-05-07 19:09 | 51.15338 | 0.77414 | 11947 ft | 341 kts | 158° |
| 2026-05-07 19:10 | 51.13164 | 0.78925 | 11959 ft | 340 kts | 158° |
| 2026-05-07 19:10 | 51.10985 | 0.80431 | 11972 ft | 341 kts | 158° |
| 2026-05-07 19:10 | 51.08804 | 0.81927 | 11985 ft | 341 kts | 158° |
| 2026-05-07 19:10 | 51.06625 | 0.83423 | 12001 ft | 341 kts | 158° |
| 2026-05-07 19:11 | 51.04452 | 0.84912 | 12012 ft | 340 kts | 158° |
| 2026-05-07 19:11 | 51.02267 | 0.86378 | 12026 ft | 343 kts | 161° |
| 2026-05-07 19:11 | 50.99952 | 0.86927 | 12047 ft | 341 kts | 187° |
| 2026-05-07 19:11 | 50.97728 | 0.85746 | 12068 ft | 340 kts | 212° |
| 2026-05-07 19:12 | 50.95865 | 0.83444 | 12070 ft | 340 kts | 220° |
| 2026-05-07 19:12 | 50.94069 | 0.80989 | 12065 ft | 341 kts | 221° |
| 2026-05-07 19:12 | 50.92282 | 0.78521 | 12061 ft | 340 kts | 221° |
| 2026-05-07 19:12 | 50.90492 | 0.76047 | 12066 ft | 343 kts | 221° |
| 2026-05-07 19:13 | 50.88674 | 0.73592 | 12400 ft | 344 kts | 220° |
| 2026-05-07 19:13 | 50.86864 | 0.71197 | 13118 ft | 332 kts | 220° |
| 2026-05-07 19:13 | 50.85120 | 0.68920 | 14029 ft | 317 kts | 219° |
| 2026-05-07 19:13 | 50.83436 | 0.66778 | 14871 ft | 304 kts | 219° |
| 2026-05-07 19:14 | 50.81794 | 0.64713 | 15517 ft | 301 kts | 219° |
| 2026-05-07 19:14 | 50.80156 | 0.62638 | 15972 ft | 303 kts | 219° |
| 2026-05-07 19:14 | 50.78507 | 0.60548 | 16395 ft | 305 kts | 219° |
| 2026-05-07 19:14 | 50.76840 | 0.58451 | 16802 ft | 307 kts | 219° |
| 2026-05-07 19:15 | 50.75163 | 0.56336 | 17199 ft | 309 kts | 219° |
| 2026-05-07 19:15 | 50.73474 | 0.54213 | 17580 ft | 311 kts | 219° |
| 2026-05-07 19:15 | 50.71777 | 0.52079 | 17951 ft | 313 kts | 219° |
| 2026-05-07 19:15 | 50.70089 | 0.49968 | 18302 ft | 314 kts | 219° |
| 2026-05-07 19:16 | 50.68407 | 0.47761 | 18597 ft | 315 kts | 227° |
| 2026-05-07 19:16 | 50.67287 | 0.44821 | 18883 ft | 315 kts | 248° |
| 2026-05-07 19:16 | 50.66524 | 0.41580 | 19162 ft | 317 kts | 249° |
| 2026-05-07 19:16 | 50.65783 | 0.38305 | 19474 ft | 318 kts | 250° |
| 2026-05-07 19:17 | 50.65070 | 0.34998 | 19783 ft | 319 kts | 251° |
| 2026-05-07 19:17 | 50.64371 | 0.31672 | 20088 ft | 320 kts | 251° |
| 2026-05-07 19:17 | 50.63684 | 0.28335 | 20379 ft | 321 kts | 251° |
| 2026-05-07 19:17 | 50.62998 | 0.24980 | 20663 ft | 322 kts | 251° |
| 2026-05-07 19:18 | 50.62311 | 0.21606 | 20937 ft | 324 kts | 251° |
| 2026-05-07 19:18 | 50.61623 | 0.18223 | 21212 ft | 325 kts | 251° |
| 2026-05-07 19:18 | 50.60933 | 0.14832 | 21484 ft | 326 kts | 251° |
| 2026-05-07 19:18 | 50.60239 | 0.11423 | 21757 ft | 327 kts | 251° |
| 2026-05-07 19:19 | 50.59543 | 0.08007 | 22009 ft | 329 kts | 251° |
| 2026-05-07 19:19 | 50.58844 | 0.04581 | 22266 ft | 330 kts | 251° |
| 2026-05-07 19:19 | 50.58140 | 0.01137 | 22522 ft | 331 kts | 251° |
| 2026-05-07 19:19 | 50.57434 | -0.02322 | 22779 ft | 332 kts | 251° |
| 2026-05-07 19:20 | 50.56740 | -0.05746 | 23025 ft | 333 kts | 251° |
| 2026-05-07 19:20 | 50.55898 | -0.09140 | 23232 ft | 334 kts | 237° |
| 2026-05-07 19:20 | 50.54272 | -0.11699 | 23425 ft | 335 kts | 210° |
| 2026-05-07 19:20 | 50.52062 | -0.12846 | 23618 ft | 340 kts | 186° |
| 2026-05-07 19:21 | 50.49692 | -0.12849 | 23796 ft | 343 kts | 180° |
| 2026-05-07 19:21 | 50.47309 | -0.12530 | 23981 ft | 345 kts | 174° |
| 2026-05-07 19:21 | 50.44933 | -0.11859 | 24170 ft | 347 kts | 171° |
| 2026-05-07 19:21 | 50.42568 | -0.11059 | 24358 ft | 348 kts | 170° |
| 2026-05-07 19:22 | 50.40203 | -0.10208 | 24535 ft | 349 kts | 169° |
| 2026-05-07 19:22 | 50.37832 | -0.09325 | 24721 ft | 350 kts | 169° |
| 2026-05-07 19:22 | 50.35457 | -0.08457 | 24941 ft | 350 kts | 169° |
| 2026-05-07 19:22 | 50.33082 | -0.07607 | 25164 ft | 350 kts | 170° |
| 2026-05-07 19:23 | 50.30704 | -0.06799 | 25382 ft | 349 kts | 171° |
| 2026-05-07 19:23 | 50.28327 | -0.06016 | 25601 ft | 348 kts | 171° |
| 2026-05-07 19:23 | 50.25985 | -0.05246 | 25815 ft | 348 kts | 171° |
| 2026-05-07 19:23 | 50.23611 | -0.04462 | 26023 ft | 348 kts | 171° |
| 2026-05-07 19:24 | 50.21242 | -0.03693 | 26229 ft | 347 kts | 171° |
| 2026-05-07 19:24 | 50.18880 | -0.02902 | 26421 ft | 347 kts | 170° |
| 2026-05-07 19:24 | 50.16523 | -0.02104 | 26628 ft | 346 kts | 171° |
| 2026-05-07 19:24 | 50.14149 | -0.01334 | 26684 ft | 350 kts | 171° |
| 2026-05-07 19:25 | 50.11743 | -0.00548 | 26684 ft | 356 kts | 170° |
| 2026-05-07 19:25 | 50.09305 | 0.00289 | 26696 ft | 361 kts | 169° |
| 2026-05-07 19:25 | 50.06857 | 0.01219 | 26841 ft | 363 kts | 168° |
| 2026-05-07 19:25 | 50.04407 | 0.02187 | 27004 ft | 363 kts | 168° |
| 2026-05-07 19:26 | 50.01958 | 0.03172 | 27168 ft | 364 kts | 168° |
| 2026-05-07 19:26 | 49.99529 | 0.04161 | 27311 ft | 365 kts | 168° |
| 2026-05-07 19:26 | 49.97072 | 0.05159 | 27460 ft | 366 kts | 168° |
| 2026-05-07 19:26 | 49.94611 | 0.06157 | 27603 ft | 366 kts | 168° |
| 2026-05-07 19:27 | 49.92138 | 0.07119 | 27740 ft | 367 kts | 169° |
| 2026-05-07 19:27 | 49.89658 | 0.08074 | 27878 ft | 367 kts | 168° |
| 2026-05-07 19:27 | 49.87178 | 0.09050 | 28008 ft | 368 kts | 168° |
| 2026-05-07 19:27 | 49.84691 | 0.10039 | 28143 ft | 369 kts | 168° |
| 2026-05-07 19:28 | 49.82201 | 0.11010 | 28327 ft | 368 kts | 169° |
| 2026-05-07 19:28 | 49.79724 | 0.11961 | 28640 ft | 361 kts | 168° |
| 2026-05-07 19:28 | 49.74806 | 0.13909 | 28861 ft | 364 kts | 168° |
| 2026-05-07 19:29 | 49.72358 | 0.14907 | 29018 ft | 363 kts | 168° |
| 2026-05-07 19:29 | 49.69931 | 0.15857 | 29375 ft | 357 kts | 169° |
| 2026-05-07 19:29 | 49.67519 | 0.16780 | 29509 ft | 357 kts | 169° |
| 2026-05-07 19:29 | 49.65110 | 0.17715 | 29644 ft | 357 kts | 168° |
| 2026-05-07 19:30 | 49.62708 | 0.18665 | 29880 ft | 354 kts | 168° |
| 2026-05-07 19:30 | 49.60319 | 0.19621 | 29944 ft | 356 kts | 168° |
| 2026-05-07 19:30 | 49.57945 | 0.20573 | 30184 ft | 348 kts | 168° |
| 2026-05-07 19:30 | 49.55629 | 0.21509 | 30466 ft | 343 kts | 168° |
| 2026-05-07 19:31 | 49.53330 | 0.22440 | 30655 ft | 340 kts | 168° |
| 2026-05-07 19:31 | 49.51081 | 0.23351 | 30832 ft | 337 kts | 168° |
| 2026-05-07 19:31 | 49.48820 | 0.24254 | 30967 ft | 335 kts | 169° |
| 2026-05-07 19:31 | 49.46551 | 0.25144 | 31003 ft | 337 kts | 169° |
| 2026-05-07 19:32 | 49.41977 | 0.26970 | 31020 ft | 342 kts | 168° |
| 2026-05-07 19:32 | 49.37342 | 0.28824 | 31025 ft | 347 kts | 169° |